Flight Track Log - Related Links

Times and Time Zones

All times are in EDT time to prevent confusion due to time zone crossing. See the UAL4476 flight status page for this flight to view local times or setup timezone preferences in your user account.

Time Position Orientation Groundspeed Altitude Reporting Facility
EDT Latitude Longitude Course Direction KTS MPH feet Rate Location/Type
Sat 08:44:31 AM 41.3917 -81.8867 282° West 177 204 1,800  Level Cleveland Center
Sat 08:46:21 AM 41.4131 -82.0228 282° West 233 268 5,500 2,012 Climbing Cleveland Center
Sat 08:47:21 AM 41.4842 -82.0022 12° North 203 234 7,500 2,200 Climbing Cleveland Center
Sat 08:48:21 AM 41.5311 -81.9228 52° Northeast 191 220 9,900 1,900 Climbing Cleveland Center
Sat 08:49:21 AM 41.5842 -81.8350 51° Northeast 256 295 11,300 1,250 Climbing Cleveland Center
Sat 08:50:21 AM 41.6436 -81.7417 50° Northeast 311 358 12,400 1,000 Climbing Cleveland Center
Sat 08:51:21 AM 41.6964 -81.6481 53° Northeast 337 388 13,300 1,000 Climbing Cleveland Center
Sat 08:52:21 AM 41.7642 -81.5436 49° Northeast 362 417 14,400 1,300 Climbing Cleveland Center
Sat 08:53:21 AM 41.8256 -81.4303 54° Northeast 369 425 15,900 1,550 Climbing Cleveland Center
Sat 08:54:21 AM 41.8556 -81.3025 72° East 358 412 17,500 1,350 Climbing Cleveland Center
Sat 08:55:21 AM 41.8814 -81.1519 77° East 358 412 18,600 1,300 Climbing Cleveland Center
Sat 08:56:21 AM 41.9028 -81.0156 78° East 370 426 20,100 1,550 Climbing Cleveland Center
Sat 08:57:21 AM 41.9242 -80.8817 78° East 370 426 21,700 1,550 Climbing Cleveland Center
Sat 08:58:21 AM 41.9453 -80.7450 78° East 370 426 23,200 1,500 Climbing Cleveland Center
Sat 08:59:21 AM 41.9661 -80.6083 78° East 375 432 24,700 1,300 Climbing Cleveland Center
Sat 09:00:21 AM 41.9892 -80.4686 77° East 375 432 25,800 1,100 Climbing Cleveland Center
Sat 09:01:21 AM 42.0119 -80.3289 78° East 375 432 26,900 1,050 Climbing Cleveland Center
Sat 09:02:21 AM 42.0322 -80.1861 79° East 380 437 27,900 950 Climbing Cleveland Center
Sat 09:03:21 AM 42.0525 -80.0575 78° East 385 443 28,800 950 Climbing Cleveland Center
Sat 09:04:21 AM 42.0747 -79.9117 78° East 391 450 29,800 1,000 Climbing Cleveland Center
Sat 09:05:21 AM 42.0947 -79.7661 79° East 391 450 30,800 1,050 Climbing Cleveland Center
Sat 09:06:21 AM 42.1186 -79.6231 77° East 391 450 31,900 1,050 Climbing Cleveland Center
Sat 09:07:21 AM 42.1381 -79.4717 80° East 396 456 32,900 550 Climbing Cleveland Center
Sat 09:08:21 AM 42.1614 -79.3169 78° East 401 461 33,000 50 Climbing Cleveland Center
Sat 09:09:21 AM 42.1844 -79.1542 79° East 422 486 33,000  Level Cleveland Center
Sat 09:10:21 AM 42.2075 -78.9881 79° East 437 503 33,000  Level Cleveland Center
Sat 09:11:21 AM 42.2278 -78.8167 81° East 449 517 33,000  Level Cleveland Center
Sat 09:12:21 AM 42.2500 -78.6478 80° East 454 522 33,000  Level Cleveland Center
Sat 09:13:21 AM 42.2700 -78.4758 81° East 454 522 33,000  Level Cleveland Center
Sat 09:14:21 AM 42.2956 -78.2842 80° East 462 532 33,000  Level Cleveland Center
Sat 09:15:21 AM 42.3150 -78.1150 81° East 462 532 33,000  Level Cleveland Center
Sat 09:16:21 AM 42.3364 -77.9456 80° East 467 537 33,000  Level Cleveland Center
Sat 09:17:21 AM 42.3572 -77.7733 81° East 467 537 33,000  Level Cleveland Center
Sat 09:18:21 AM 42.3758 -77.6008 82° East 467 537 33,000  Level Cleveland Center
Sat 09:19:21 AM 42.3942 -77.4314 82° East 467 537 33,000  Level Cleveland Center
Sat 09:20:52 AM 42.4219 -77.1858 81° East 470 541 33,000  Level Boston Center
Sat 09:21:52 AM 42.4417 -77.0128 81° East 470 541 33,000  Level Boston Center
Sat 09:22:52 AM 42.4608 -76.8425 81° East 465 535 33,000  Level Boston Center
Sat 09:23:52 AM 42.4800 -76.6719 81° East 460 529 33,000  Level Boston Center
Sat 09:24:52 AM 42.4967 -76.4983 83° East 465 535 33,000  Level Boston Center
Sat 09:25:52 AM 42.5128 -76.3331 82° East 454 522 33,000  Level Boston Center
Sat 09:26:52 AM 42.5331 -76.1653 81° East 448 516 33,000  Level Boston Center
Sat 09:27:52 AM 42.5489 -76.0000 83° East 443 510 33,000  Level Boston Center
Sat 09:29:04 AM 42.5647 -75.8261 83° East 450 518 33,000  Level Boston Center
Sat 09:30:04 AM 42.5850 -75.6211 82° East 455 524 33,000  Level Boston Center
Sat 09:31:04 AM 42.6022 -75.4528 82° East 455 524 33,000  Level Boston Center
Sat 09:32:16 AM 42.6192 -75.2814 82° East 455 524 33,000  Level Boston Center
Sat 09:33:16 AM 42.6389 -75.0706 83° East 462 532 33,000  Level Boston Center
Sat 09:34:16 AM 42.6531 -74.8989 84° East 462 532 33,000  Level Boston Center
Sat 09:35:16 AM 42.6669 -74.7303 84° East 462 532 33,000  Level Boston Center
Sat 09:36:16 AM 42.6831 -74.5500 83° East 462 532 33,000  Level Boston Center
Sat 09:37:16 AM 42.6944 -74.3808 85° East 462 532 33,000  Level Boston Center
Sat 09:38:16 AM 42.6867 -74.2083 93° East 457 526 33,000  Level Boston Center
Sat 09:39:16 AM 42.6747 -74.0328 95° East 463 533 33,000  Level Boston Center
Sat 09:40:16 AM 42.6625 -73.8575 95° East 463 533 33,000  Level Boston Center
Sat 09:41:16 AM 42.6564 -73.6681 92° East 463 533 33,000  Level Boston Center
Sat 09:42:16 AM 42.6456 -73.4931 95° East 463 533 33,000 -500 Level Boston Center
Sat 09:43:16 AM 42.6344 -73.3206 95° East 463 533 32,000 -1,200 Descending Boston Center
Sat 09:44:16 AM 42.6253 -73.1625 94° East 453 521 30,600 -1,700 Descending Boston Center
Sat 09:45:16 AM 42.6136 -72.9958 95° East 439 505 28,600 -2,000 Descending Boston Center
Sat 09:46:16 AM 42.5997 -72.8264 96° East 444 511 26,600 -2,000 Descending Boston Center
Sat 09:47:16 AM 42.5897 -72.6600 95° East 444 511 24,600 -2,000 Descending Boston Center
Sat 09:48:16 AM 42.5797 -72.4881 94° East 444 511 22,600 -2,050 Descending Boston Center
Sat 09:49:16 AM 42.5669 -72.3244 96° East 444 511 20,500 -2,000 Descending Boston Center
Sat 09:50:16 AM 42.5544 -72.1864 97° East 413 475 18,600 -1,850 Descending Boston Center
Sat 09:51:16 AM 42.5414 -72.0175 96° East 403 464 16,800 -2,250 Descending Boston Center
Sat 09:52:16 AM 42.5283 -71.8850 98° East 403 464 14,100 -2,850 Descending Boston Center
Sat 09:53:16 AM 42.5150 -71.7303 97° East 385 443 11,100 -1,550 Descending Boston Center
Sat 09:54:16 AM 42.5036 -71.6150 98° East 358 412 11,000 -600 Descending Boston Center
Sat 09:55:16 AM 42.4922 -71.4911 97° East 316 364 9,900 -1,050 Descending Boston Center
Sat 09:56:16 AM 42.4831 -71.3983 98° East 280 322 8,900 -1,150 Descending Boston Center
Sat 09:57:16 AM 42.4428 -71.3092 121° Southeast 254 292 7,600 -1,450 Descending Boston Center
Sat 09:58:16 AM 42.3922 -71.2678 149° Southeast 228 262 6,000 -1,450 Descending Boston Center
Sat 09:59:16 AM 42.3356 -71.2267 152° Southeast 225 259 4,700 -1,250 Descending Boston Center
Sat 10:00:16 AM 42.3078 -71.1656 122° Southeast 210 242 3,500 -1,250 Descending Boston Center
Sat 10:01:16 AM 42.3000 -71.0833 97° East 189 217 2,200 -1,100 Descending KA90
Sat 10:02:16 AM 42.3167 -71.0333 66° East 155 178 1,300 -1,000 Descending KA90
Sat 10:03:16 AM 42.3500 -71.0167 20° North 126 145 200 7,567 Descending KA90
Sat 10:05:16 AM 42.3861 -70.9194 63° Northeast 144 166 24,000 7,933 Climbing Boston Center
Sat 10:06:16 AM 42.4064 -70.8767 57° Northeast 144 166 24,000  Level Boston Center
Sat 10:08:00 AM 42.3630 -71.0064 North  Level Estimated
Sat 10:15:00 AM 42.3630 -71.0064 North  Level Estimated
Sat 10:16:00 AM 42.3630 -71.0064 North  Level Estimated
Sat 10:17:00 AM 42.3630 -71.0064 North  Level Estimated

Login

Don't have an account? Register now (free) for customized features, flight alerts, and more!